ADDS METAR Data INFO
IDs: Format: Raw Decoded Include TAF

Data at: 2259 UTC 16 Jan 2018

KMCE 162253Z AUTO 31004KT 5SM BR OVC006 13/11 A3020 RMK AO2 SLP228 T01280106
KMCE 162153Z AUTO 35007KT 6SM HZ OVC008 13/10 A3021 RMK AO2 SLP229 T01330100
KMCE 162144Z AUTO 32006KT 6SM HZ OVC009 13/10 A3021 RMK AO2 T01280100
KMCE 162126Z AUTO 35005KT 6SM HZ OVC010 14/10 A3020 RMK AO2 T01390100
KMCE 162053Z AUTO 33003KT 4SM HZ BKN007 13/10 A3022 RMK AO2 SLP232 T01330100 58013
KMCE 161953Z AUTO 33003KT 3SM BR OVC005 11/09 A3024 RMK AO2 SLP241 T01060089
KMCE 161940Z AUTO 33004KT 3SM BR OVC005 11/09 A3025 RMK AO2 T01060089
KMCE 161931Z AUTO 31003KT 3SM BR OVC004 11/09 A3025 RMK AO2 T01060089
KMCE 161853Z AUTO 07005KT 2SM BR OVC003 10/08 A3024 RMK AO2 SLP241 T01000083
KMCE 161827Z AUTO 00000KT 1 1/4SM BR OVC003 09/08 A3026 RMK AO2 T00890083
KMCE 161816Z AUTO 03003KT 3/4SM BR OVC003 09/08 A3026 RMK AO2 T00940083
KMCE 161753Z AUTO 36005KT 1SM BR OVC002 09/08 A3025 RMK AO2 SLP244 T00940083 10094 20083 53018
KMCE 161727Z AUTO 02007KT 1/2SM FG OVC002 09/08 A3023 RMK AO2 T00890083
KMCE 161653Z AUTO 31004KT M1/4SM FG VV002 09/08 A3023 RMK AO2 SLP237 T00890078
KMCE 161553Z AUTO 00000KT M1/4SM FG VV002 08/08 A3019 RMK AO2 SLP222 T00830078
KMCE 161508Z AUTO 00000KT 1/4SM FG VV002 09/08 A3020 RMK AO2 T00890078
KMCE 161453Z AUTO 26004KT 1/2SM FG VV002 09/08 A3020 RMK AO2 SLP226 T00890078 51012
KMCE 161448Z AUTO 00000KT 1/4SM FG VV002 09/08 A3019 RMK AO2
KMCE 161430Z AUTO 00000KT 1/2SM FG VV002 09/08 A3020 RMK AO2 T00890078
KMCE 161353Z AUTO 35004KT 1/4SM FG VV002 09/08 A3020 RMK AO2 SLP226 T00890083
KMCE 161253Z AUTO 00000KT 1/4SM FG VV002 09/08 A3016 RMK AO2 SLP214 T00890083
KMCE 161223Z AUTO 26004KT 1/4SM FG VV002 09/08 A3018 RMK AO2 T00890078
KMCE 161211Z AUTO 25006KT 1/2SM FG OVC002 09/08 A3018 RMK AO2 T00890078
KMCE 161153Z AUTO 22003KT 1 1/4SM BR OVC002 09/08 A3017 RMK AO2 SLP216 T00890078 10089 20083 55001
KMCE 161107Z AUTO 08003KT 1SM BR OVC002 09/08 A3015 RMK AO2 T00890083
KMCE 161053Z AUTO 06009KT 3/4SM BR OVC002 09/08 A3016 RMK AO2 SLP212 T00890083
KMCE 161040Z AUTO 04005KT 1/2SM FG VV002 09/08 A3017 RMK AO2 T00890083
KMCE 160953Z AUTO 03006KT 1/4SM FG VV002 09/08 A3018 RMK AO2 SLP219 T00890083
KMCE 160853Z AUTO 28004KT 1/4SM FG VV002 09/08 A3017 RMK AO2 SLP217 T00890078 53007
KMCE 160753Z AUTO 27005KT M1/4SM FG VV002 09/08 A3014 RMK AO2 SLP208 T00890078 401390056
KMCE 160653Z AUTO 30003KT M1/4SM FG VV002 09/08 A3014 RMK AO2 SLP207 T00890078
KMCE 160600Z AUTO 30004KT 1/4SM FG VV002 08/08 A3015 RMK AO2 T00830078
KMCE 160553Z AUTO 29006KT 1/2SM FG VV002 08/07 A3015 RMK AO2 SLP210 T00830072 10133 20078 53011
KMCE 160550Z AUTO 29006KT 3/4SM BR VV003 08/07 A3015 RMK AO2 PRESRR
KMCE 160545Z AUTO 28004KT 1 1/2SM BR SCT003 08/07 A3015 RMK AO2 T00830072
KMCE 160453Z AUTO 00000KT 1 3/4SM BR CLR 08/07 A3013 RMK AO2 SLP204 T00830072
KMCE 160437Z AUTO 36004KT 1 3/4SM BR SCT004 09/08 A3013 RMK AO2 T00890078
KMCE 160422Z AUTO 34005KT 1 3/4SM BR BKN004 09/08 A3012 RMK AO2 T00940078
KMCE 160414Z AUTO 36004KT 2SM BR BKN005 09/08 A3011 RMK AO2 T00940078
KMCE 160359Z AUTO 02004KT 2SM BR FEW005 09/08 A3012 RMK AO2 T00890078
KMCE 160353Z AUTO 03004KT 1SM BR VV005 09/08 A3012 RMK AO2 SLP198 T00890078
KMCE 160348Z AUTO 01004KT 3/4SM BR CLR 08/07 A3012 RMK AO2
KMCE 160341Z AUTO 32003KT 2SM BR CLR 09/08 A3012 RMK AO2 T00890078
KMCE 160332Z AUTO 30004KT 1 3/4SM BR CLR 09/08 A3012 RMK AO2 T00890078
KMCE 160306Z AUTO 31004KT 2 1/2SM BR CLR 09/08 A3011 RMK AO2 T00940083
KMCE 160253Z AUTO 30005KT 3SM BR CLR 10/08 A3010 RMK AO2 SLP194 T01000083 53003
KMCE 160239Z AUTO 29005KT 3SM BR CLR 10/08 A3010 RMK AO2 T01000083
KMCE 160205Z AUTO 25004KT 2 1/2SM BR CLR 10/08 A3009 RMK AO2 T01000083
KMCE 160153Z AUTO 25003KT 3SM BR CLR 11/09 A3008 RMK AO2 SLP185 T01060089
KMCE 160125Z AUTO 23003KT 3SM BR CLR 11/09 A3008 RMK AO2 T01110094
KMCE 160053Z AUTO 23003KT 2 1/2SM HZ CLR 12/09 A3009 RMK AO2 SLP188 T01220094
KMCE 160041Z AUTO 22004KT 2 1/2SM HZ CLR 12/09 A3008 RMK AO2 T01220094
KMCE 152353Z AUTO 00000KT 4SM HZ CLR 13/09 A3009 RMK AO2 SLP191 T01330089 10139 20089 58002
KMCE 152253Z AUTO 00000KT 4SM HZ CLR 13/08 A3011 RMK AO2 SLP195 T01330083
KMCE 152153Z AUTO 05006KT 3SM HZ FEW007 12/09 A3010 RMK AO2 SLP193 T01220089
KMCE 152148Z AUTO 03007KT 3SM HZ FEW007 12/09 A3010 RMK AO2
KMCE 152053Z AUTO VRB04KT 2SM BR OVC005 11/08 A3012 RMK AO2 SLP200 T01060083 56014
KMCE 152036Z AUTO 00000KT 2SM BR OVC005 09/08 A3012 RMK AO2 CIG 003V006 T00940083
KMCE 152006Z AUTO 00000KT 1 1/4SM BR OVC002 09/09 A3013 RMK AO2 T00940089
KMCE 151953Z AUTO 10003KT 1/2SM FG OVC002 09/08 A3012 RMK AO2 SLP200 T00940083
KMCE 151944Z AUTO 1/2SM FG OVC002 09/08 A3012 RMK AO2 PRESFR T00940083
KMCE 151933Z AUTO 00000KT 1/4SM FG OVC002 09/08 A3013 RMK AO2 PRESFR T00940083
KMCE 151916Z AUTO 00000KT 1/2SM FG OVC002 09/08 A3015 RMK AO2 T00890083
KMCE 151901Z AUTO 27003KT 1/4SM FG OVC002 09/08 A3016 RMK AO2 T00890083
KMCE 151853Z AUTO 00000KT 1/2SM FG OVC002 09/08 A3016 RMK AO2 SLP213 T00890083
KMCE 151850Z AUTO 00000KT 1/2SM FG OVC002 09/08 A3016 RMK AO2
KMCE 151753Z AUTO 11003KT 1/4SM FG VV002 09/08 A3015 RMK AO2 SLP211 T00890078 10089 20078 53009
KMCE 151653Z AUTO 00000KT M1/4SM FG VV002 08/08 A3014 RMK AO2 SLP208 T00830078
KMCE 151553Z AUTO 00000KT M1/4SM FG VV002 08/07 A3013 RMK AO2 SLP204 T00780072
KMCE 151453Z AUTO 00000KT 1/4SM FG VV002 08/07 A3013 RMK AO2 SLP202 T00780072 51006
KMCE 151403Z AUTO 28003KT 1/4SM FG VV002 08/07 A3013 RMK AO2 T00780072
KMCE 151353Z AUTO 00000KT 1/2SM FG VV003 08/07 A3013 RMK AO2 SLP201 T00780072
KMCE 151350Z AUTO 27003KT 1/2SM FG VV003 08/07 A3013 RMK AO2
KMCE 151331Z AUTO 25003KT 1/4SM FG OVC003 08/07 A3012 RMK AO2 T00830072
KMCE 151309Z AUTO 00000KT 1SM BR OVC002 08/07 A3012 RMK AO2 T00830072
KMCE 151253Z AUTO 00000KT 1/2SM FG VV002 08/07 A3011 RMK AO2 SLP196 T00830072
KMCE 151201Z AUTO 00000KT 1/4SM FG VV002 08/07 A3013 RMK AO2 T00780072
KMCE 151153Z AUTO 03004KT 1/2SM FG VV002 08/07 A3013 RMK AO2 SLP202 T00830072 10089 20056 50000
KMCE 151137Z AUTO 04005KT 1/2SM FG VV002 08/07 A3013 RMK AO2 T00780072